createdAt,value
2023-04-18T00:00:32.917Z,100838.97
2023-04-18T00:03:02.336Z,100839.19
2023-04-18T00:05:31.004Z,100832.00
2023-04-18T00:07:57.876Z,100825.88
2023-04-18T00:10:24.763Z,100816.56
2023-04-18T00:12:51.757Z,100822.34
2023-04-18T00:15:18.708Z,100826.81
2023-04-18T00:17:45.783Z,100827.50
2023-04-18T00:20:13.411Z,100830.31
2023-04-18T00:22:46.689Z,100825.91
2023-04-18T00:25:14.962Z,100837.78
2023-04-18T00:27:42.146Z,100831.44
2023-04-18T00:30:09.845Z,100829.75
2023-04-18T00:32:36.882Z,100830.81
2023-04-18T00:35:04.264Z,100826.91
2023-04-18T00:37:31.283Z,100833.13
2023-04-18T00:39:58.363Z,100832.09
2023-04-18T00:42:27.763Z,100816.53
2023-04-18T00:44:54.857Z,100826.13
2023-04-18T00:47:21.895Z,100823.38
2023-04-18T00:49:49.365Z,100814.75
2023-04-18T00:52:18.415Z,100810.78
2023-04-18T00:54:45.677Z,100797.69
2023-04-18T00:57:14.307Z,100802.75
2023-04-18T00:59:41.477Z,100810.78
2023-04-18T01:02:08.563Z,100818.66
2023-04-18T01:04:39.376Z,100825.25
2023-04-18T01:07:06.717Z,100821.38
2023-04-18T01:09:33.610Z,100824.22
2023-04-18T01:12:00.634Z,100821.84
2023-04-18T01:14:27.722Z,100813.34
2023-04-18T01:16:54.747Z,100805.00
2023-04-18T01:19:21.624Z,100784.38
2023-04-18T01:21:48.584Z,100785.31
2023-04-18T01:24:17.689Z,100789.31
2023-04-18T01:26:49.290Z,100795.25
2023-04-18T01:29:16.262Z,100791.47
2023-04-18T01:31:43.277Z,100786.88
2023-04-18T01:34:10.403Z,100789.69
2023-04-18T01:36:38.438Z,100775.19
2023-04-18T01:39:05.439Z,100786.97
2023-04-18T01:41:32.912Z,100781.91
2023-04-18T01:44:00.681Z,100767.91
2023-04-18T01:46:28.803Z,100769.78
2023-04-18T01:48:56.754Z,100768.22
2023-04-18T01:51:23.830Z,100770.81
2023-04-18T01:53:51.086Z,100775.66
2023-04-18T01:56:18.109Z,100770.47
2023-04-18T01:58:45.172Z,100761.28
2023-04-18T02:01:12.274Z,100768.16
2023-04-18T02:03:39.863Z,100758.22
2023-04-18T02:06:07.303Z,100761.19
2023-04-18T02:08:35.866Z,100760.22
2023-04-18T02:11:03.347Z,100765.41
2023-04-18T02:13:30.299Z,100761.16
2023-04-18T02:15:57.344Z,100749.25
2023-04-18T02:18:25.782Z,100755.41
2023-04-18T02:20:52.775Z,100752.09
2023-04-18T02:23:19.865Z,100756.34
2023-04-18T02:25:46.821Z,100756.34
2023-04-18T02:28:13.797Z,100747.13
2023-04-18T02:30:40.691Z,100745.03
2023-04-18T02:33:07.747Z,100752.56
2023-04-18T02:35:35.274Z,100754.69
2023-04-18T02:38:02.216Z,100747.63
2023-04-18T02:40:29.142Z,100749.50
2023-04-18T02:42:56.008Z,100757.16
2023-04-18T02:45:22.970Z,100767.75
2023-04-18T02:47:55.430Z,100766.84
2023-04-18T02:50:25.315Z,100762.69
2023-04-18T02:52:52.261Z,100753.97
2023-04-18T02:55:19.265Z,100753.50
2023-04-18T02:57:46.258Z,100756.22
2023-04-18T03:00:14.203Z,100754.22
2023-04-18T03:02:41.278Z,100758.69
2023-04-18T03:05:08.964Z,100755.72
2023-04-18T03:07:35.990Z,100754.22
2023-04-18T03:10:03.358Z,100744.91
2023-04-18T03:12:30.570Z,100748.91
2023-04-18T03:14:57.465Z,100739.97
2023-04-18T03:17:24.429Z,100743.00
2023-04-18T03:19:51.372Z,100757.41
2023-04-18T03:22:18.463Z,100755.75
2023-04-18T03:24:46.409Z,100746.56
2023-04-18T03:27:13.599Z,100757.75
2023-04-18T03:29:40.545Z,100760.34
2023-04-18T03:32:07.411Z,100763.63
2023-04-18T03:34:34.324Z,100761.97
2023-04-18T03:37:01.461Z,100753.97
2023-04-18T03:39:28.374Z,100764.25
2023-04-18T03:41:55.357Z,100756.34
2023-04-18T03:44:22.254Z,100757.50
2023-04-18T03:46:49.231Z,100764.69
2023-04-18T03:49:17.228Z,100772.16
2023-04-18T03:51:47.913Z,100775.44
2023-04-18T03:54:16.552Z,100778.50
2023-04-18T03:56:43.863Z,100766.72
2023-04-18T03:59:11.253Z,100757.75
2023-04-18T04:01:38.395Z,100763.63
2023-04-18T04:04:06.405Z,100760.59
2023-04-18T04:06:33.371Z,100763.53
2023-04-18T04:09:00.769Z,100771.66
2023-04-18T04:11:27.737Z,100770.69
2023-04-18T04:13:54.732Z,100776.50
2023-04-18T04:16:21.920Z,100778.50
2023-04-18T04:18:48.877Z,100769.53
2023-04-18T04:21:15.956Z,100777.78
2023-04-18T04:23:42.940Z,100777.06
2023-04-18T04:26:10.187Z,100782.22
2023-04-18T04:28:37.187Z,100776.75
2023-04-18T04:31:08.485Z,100778.50
2023-04-18T04:33:38.663Z,100771.44
2023-04-18T04:36:07.541Z,100780.91
2023-04-18T04:38:38.169Z,100780.56
2023-04-18T04:41:09.278Z,100783.97
2023-04-18T04:43:36.399Z,100775.38
2023-04-18T04:46:04.700Z,100788.97
2023-04-18T04:48:31.715Z,100780.69
2023-04-18T04:51:00.700Z,100788.88
2023-04-18T04:53:32.961Z,100788.25
2023-04-18T04:55:59.987Z,100796.63
2023-04-18T04:58:27.114Z,100796.75
2023-04-18T05:00:54.869Z,100794.06
2023-04-18T05:03:22.354Z,100796.59
2023-04-18T05:05:49.415Z,100793.09
2023-04-18T05:08:16.411Z,100798.50
2023-04-18T05:10:44.361Z,100792.06
2023-04-18T05:13:11.744Z,100802.53
2023-04-18T05:15:39.802Z,100794.75
2023-04-18T05:18:07.377Z,100802.84
2023-04-18T05:20:34.455Z,100806.97
2023-04-18T05:23:01.417Z,100810.00
2023-04-18T05:25:29.699Z,100815.81
2023-04-18T05:27:56.661Z,100819.50
2023-04-18T05:30:23.558Z,100829.25
2023-04-18T05:32:50.554Z,100818.22
2023-04-18T05:35:17.703Z,100820.63
2023-04-18T05:37:44.637Z,100828.13
2023-04-18T05:40:12.669Z,100827.09
2023-04-18T05:42:39.770Z,100838.47
2023-04-18T05:45:07.412Z,100847.94
2023-04-18T05:47:34.347Z,100849.31
2023-04-18T05:50:01.407Z,100843.44
2023-04-18T05:52:28.569Z,100845.06
2023-04-18T05:54:55.467Z,100856.59
2023-04-18T05:57:22.417Z,100860.50
2023-04-18T05:59:49.340Z,100862.50
2023-04-18T06:02:16.497Z,100858.03
2023-04-18T06:04:43.981Z,100854.50
2023-04-18T06:07:11.346Z,100858.75
2023-04-18T06:09:38.230Z,100848.59
2023-04-18T06:12:05.536Z,100867.94
2023-04-18T06:14:32.562Z,100858.84
2023-04-18T06:16:59.638Z,100869.34
2023-04-18T06:19:26.541Z,100858.97
2023-04-18T06:21:53.747Z,100868.13
2023-04-18T06:24:20.850Z,100877.00
2023-04-18T06:26:47.912Z,100876.81
2023-04-18T06:29:14.957Z,100873.22
2023-04-18T06:31:42.189Z,100877.41
2023-04-18T06:34:09.469Z,100877.22
2023-04-18T06:36:37.746Z,100865.56
2023-04-18T06:39:04.720Z,100863.44
2023-04-18T06:41:31.762Z,100861.81
2023-04-18T06:44:04.175Z,100861.81
2023-04-18T06:46:32.828Z,100866.16
2023-04-18T06:48:59.937Z,100864.91
2023-04-18T06:51:27.609Z,100860.50
2023-04-18T06:53:54.830Z,100862.66
2023-04-18T06:56:22.131Z,100860.84
2023-04-18T06:58:49.850Z,100875.00
2023-04-18T07:01:16.882Z,100867.31
2023-04-18T07:03:44.086Z,100874.50
2023-04-18T07:06:11.312Z,100873.25
2023-04-18T07:08:38.504Z,100885.63
2023-04-18T07:11:06.735Z,100872.41
2023-04-18T07:13:33.765Z,100877.63
2023-04-18T07:16:01.470Z,100872.06
2023-04-18T07:18:37.359Z,100881.97
2023-04-18T07:21:09.148Z,100892.34
2023-04-18T07:23:36.618Z,100885.88
2023-04-18T07:26:05.557Z,100888.22
2023-04-18T07:28:33.286Z,100893.53
2023-04-18T07:31:01.255Z,100890.56
2023-04-18T07:33:31.610Z,100878.09
2023-04-18T07:35:58.751Z,100898.97
2023-04-18T07:38:25.935Z,100895.06
2023-04-18T07:41:01.154Z,100899.41
2023-04-18T07:43:28.155Z,100896.34
2023-04-18T07:45:55.312Z,100898.22
2023-04-18T07:48:22.733Z,100890.22
2023-04-18T07:50:49.894Z,100901.88
2023-04-18T07:53:17.187Z,100899.91
2023-04-18T07:55:44.961Z,100888.94
2023-04-18T07:58:12.205Z,100894.59
2023-04-18T08:00:39.822Z,100885.41
2023-04-18T08:03:07.616Z,100886.94
2023-04-18T08:05:34.910Z,100885.78
2023-04-18T08:08:02.360Z,100890.94
2023-04-18T08:10:29.415Z,100888.84
2023-04-18T08:12:56.373Z,100892.34
2023-04-18T08:15:23.262Z,100885.50
2023-04-18T08:17:51.461Z,100893.78
2023-04-18T08:20:18.377Z,100912.25
2023-04-18T08:23:02.004Z,100892.31
2023-04-18T08:25:33.217Z,100887.31
2023-04-18T08:28:00.590Z,100894.19
2023-04-18T08:30:27.832Z,100897.28
2023-04-18T08:32:54.887Z,100905.09
2023-04-18T08:35:21.970Z,100905.44
2023-04-18T08:37:49.052Z,100912.97
2023-04-18T08:40:16.856Z,100913.34
2023-04-18T08:42:45.093Z,100897.66
2023-04-18T08:45:14.244Z,100906.69
2023-04-18T08:47:44.168Z,100909.13
2023-04-18T08:50:11.295Z,100893.81
2023-04-18T08:52:40.083Z,100905.97
2023-04-18T08:55:09.391Z,100902.28
2023-04-18T08:57:36.686Z,100899.31
2023-04-18T09:00:10.445Z,100902.75
2023-04-18T09:02:47.253Z,100913.97
2023-04-18T09:05:20.048Z,100898.84
2023-04-18T09:07:53.065Z,100902.69
2023-04-18T09:10:28.902Z,100897.59
2023-04-18T09:12:58.670Z,100902.25
2023-04-18T09:15:27.296Z,100895.69
2023-04-18T09:17:57.982Z,100882.59
2023-04-18T09:20:35.876Z,100896.75
2023-04-18T09:23:10.346Z,100893.66
2023-04-18T09:25:49.106Z,100885.53
2023-04-18T09:28:23.177Z,100886.03
2023-04-18T09:30:54.328Z,100887.34
2023-04-18T09:33:32.504Z,100885.09
2023-04-18T09:36:23.924Z,100875.31
2023-04-18T09:38:56.022Z,100861.00
2023-04-18T09:41:23.995Z,100875.91
2023-04-18T09:44:17.117Z,100862.66
2023-04-18T09:46:47.342Z,100859.31
2023-04-18T09:49:15.509Z,100862.19
2023-04-18T09:51:44.594Z,100863.28
2023-04-18T09:54:16.049Z,100858.53
2023-04-18T09:56:45.882Z,100864.75
2023-04-18T09:59:18.064Z,100861.03
2023-04-18T10:01:48.425Z,100871.75
2023-04-18T10:04:17.691Z,100879.56
2023-04-18T10:06:46.833Z,100868.31
2023-04-18T10:09:15.968Z,100871.94
2023-04-18T10:11:44.441Z,100870.16
2023-04-18T10:14:14.094Z,100866.31
2023-04-18T10:16:45.409Z,100855.34
2023-04-18T10:19:26.140Z,100862.47
2023-04-18T10:22:01.530Z,100862.34
2023-04-18T10:24:52.914Z,100877.13
2023-04-18T10:27:48.879Z,100882.00
2023-04-18T10:30:17.398Z,100883.69
2023-04-18T10:32:48.363Z,100885.31
2023-04-18T10:35:15.441Z,100875.16
2023-04-18T10:37:52.348Z,100889.31
2023-04-18T10:40:34.538Z,100876.16
2023-04-18T10:43:01.736Z,100875.63
2023-04-18T10:45:33.473Z,100866.00
2023-04-18T10:48:30.158Z,100861.06
2023-04-18T10:51:17.638Z,100867.34
2023-04-18T10:53:53.172Z,100867.94
2023-04-18T10:56:20.419Z,100881.78
2023-04-18T10:58:52.955Z,100860.94
2023-04-18T11:01:33.135Z,100842.72
2023-04-18T11:04:01.181Z,100845.34
2023-04-18T11:06:29.052Z,100846.31
2023-04-18T11:09:13.788Z,100832.75
2023-04-18T11:11:41.861Z,100829.97
2023-04-18T11:14:09.060Z,100817.13
2023-04-18T11:16:36.356Z,100821.25
2023-04-18T11:19:25.650Z,100818.75
2023-04-18T11:21:52.784Z,100811.09
2023-04-18T11:24:24.093Z,100809.44
2023-04-18T11:26:55.737Z,100832.13
2023-04-18T11:29:22.988Z,100826.22
2023-04-18T11:31:54.051Z,100828.38
2023-04-18T11:34:29.392Z,100831.91
2023-04-18T11:36:56.385Z,100822.59
2023-04-18T11:39:23.768Z,100816.09
2023-04-18T11:41:50.955Z,100815.81
2023-04-18T11:44:24.641Z,100812.78
2023-04-18T11:46:55.125Z,100810.59
2023-04-18T11:49:40.616Z,100811.44
2023-04-18T11:52:13.408Z,100810.94
2023-04-18T11:54:46.815Z,100800.19
2023-04-18T11:57:30.798Z,100796.34
2023-04-18T12:00:01.191Z,100807.31
2023-04-18T12:02:50.528Z,100792.50
2023-04-18T12:05:31.865Z,100788.94
2023-04-18T12:08:13.937Z,100784.53
2023-04-18T12:10:48.234Z,100788.75
2023-04-18T12:13:15.226Z,100785.22
2023-04-18T12:15:46.299Z,100761.38
2023-04-18T12:18:15.286Z,100760.72
2023-04-18T12:20:47.341Z,100771.09
2023-04-18T12:23:40.126Z,100775.09
2023-04-18T12:26:12.631Z,100765.09
2023-04-18T12:28:39.632Z,100777.53
2023-04-18T12:31:07.377Z,100775.91
2023-04-18T12:33:36.664Z,100763.00
2023-04-18T12:36:05.476Z,100771.16
2023-04-18T12:38:32.452Z,100762.72
2023-04-18T12:40:59.511Z,100765.13
2023-04-18T12:43:26.689Z,100778.03
2023-04-18T12:45:53.709Z,100767.28
2023-04-18T12:48:20.713Z,100775.50
2023-04-18T12:50:47.648Z,100778.94
2023-04-18T12:53:14.630Z,100768.09
2023-04-18T12:55:41.651Z,100768.44
2023-04-18T12:58:08.675Z,100769.41
2023-04-18T13:00:35.733Z,100767.63
2023-04-18T13:03:03.039Z,100763.22
2023-04-18T13:05:33.474Z,100771.53
2023-04-18T13:10:31.685Z,100754.00
2023-04-18T13:12:58.826Z,100747.09
2023-04-18T13:15:27.487Z,100744.84
2023-04-18T13:17:58.363Z,100739.97
2023-04-18T13:20:25.516Z,100736.16
2023-04-18T13:22:52.475Z,100729.44
2023-04-18T13:25:19.490Z,100723.84
2023-04-18T13:27:46.524Z,100726.34
2023-04-18T13:30:14.064Z,100712.91
2023-04-18T13:32:43.056Z,100725.38
2023-04-18T13:35:11.312Z,100728.47
2023-04-18T13:37:39.340Z,100723.38
2023-04-18T13:40:07.187Z,100715.38
2023-04-18T13:42:36.448Z,100713.91
2023-04-18T13:45:04.134Z,100714.88
2023-04-18T13:47:31.176Z,100724.38
2023-04-18T13:49:59.341Z,100727.00
2023-04-18T13:52:26.398Z,100730.75
2023-04-18T13:54:53.457Z,100715.53
2023-04-18T13:57:21.960Z,100728.31
2023-04-18T13:59:49.000Z,100722.56
2023-04-18T14:02:15.988Z,100728.78
2023-04-18T14:04:43.127Z,100729.81
2023-04-18T14:07:10.686Z,100747.84
2023-04-18T14:09:37.848Z,100724.94
2023-04-18T14:12:05.283Z,100737.41
2023-04-18T14:14:32.240Z,100737.97
2023-04-18T14:16:59.178Z,100726.31
2023-04-18T14:19:27.416Z,100717.34
2023-04-18T14:21:54.587Z,100741.34
2023-04-18T14:24:25.538Z,100730.91
2023-04-18T14:26:54.837Z,100727.31
2023-04-18T14:29:21.715Z,100719.03
2023-04-18T14:31:50.535Z,100715.00
2023-04-18T14:34:17.480Z,100714.50
2023-04-18T14:36:44.508Z,100717.34
2023-04-18T14:39:11.581Z,100708.00
2023-04-18T14:41:38.710Z,100723.06
2023-04-18T14:44:05.763Z,100733.22
2023-04-18T14:46:32.720Z,100712.22
2023-04-18T14:49:00.466Z,100713.22
2023-04-18T14:51:27.710Z,100727.63
2023-04-18T14:53:55.549Z,100714.56
2023-04-18T14:56:24.230Z,100715.34
2023-04-18T14:58:51.309Z,100722.03
2023-04-18T15:01:18.607Z,100716.44
2023-04-18T15:03:46.042Z,100726.84
2023-04-18T15:06:13.251Z,100730.25
2023-04-18T15:08:40.619Z,100723.09
2023-04-18T15:11:08.327Z,100724.56
2023-04-18T15:13:36.878Z,100719.91
2023-04-18T15:16:04.043Z,100707.25
2023-04-18T15:18:31.036Z,100710.72
2023-04-18T15:20:59.845Z,100708.94
2023-04-18T15:23:28.119Z,100710.94
2023-04-18T15:25:55.317Z,100713.84
2023-04-18T15:28:23.153Z,100713.19
2023-04-18T15:30:50.130Z,100719.41
2023-04-18T15:33:19.118Z,100720.53
2023-04-18T15:35:47.684Z,100729.41
2023-04-18T15:38:14.685Z,100720.34
2023-04-18T15:40:43.479Z,100715.13
2023-04-18T15:43:10.579Z,100732.25
2023-04-18T15:45:37.582Z,100720.13
2023-04-18T15:48:05.894Z,100722.44
2023-04-18T15:50:33.829Z,100715.59
2023-04-18T15:53:02.066Z,100712.16
2023-04-18T15:55:29.254Z,100724.41
2023-04-18T15:57:56.409Z,100730.19
2023-04-18T16:00:23.988Z,100716.91
2023-04-18T16:02:51.298Z,100727.88
2023-04-18T16:05:19.002Z,100719.56
2023-04-18T16:07:46.146Z,100718.44
2023-04-18T16:10:15.182Z,100727.25
2023-04-18T16:12:42.365Z,100718.16
2023-04-18T16:15:11.247Z,100726.00
2023-04-18T16:17:38.934Z,100718.97
2023-04-18T16:20:08.614Z,100711.56
2023-04-18T16:22:36.420Z,100718.16
2023-04-18T16:25:04.984Z,100713.84
2023-04-18T16:27:33.510Z,100712.56
2023-04-18T16:30:01.097Z,100714.78
2023-04-18T16:32:28.237Z,100716.09
2023-04-18T16:34:55.402Z,100730.13
2023-04-18T16:37:22.675Z,100732.25
2023-04-18T16:39:49.658Z,100738.16
2023-04-18T16:42:16.648Z,100744.91
2023-04-18T16:44:45.217Z,100750.56
2023-04-18T16:47:12.154Z,100748.28
2023-04-18T16:49:39.393Z,100752.03
2023-04-18T16:52:06.430Z,100740.00
2023-04-18T16:54:33.371Z,100742.84
2023-04-18T16:57:00.864Z,100736.72
2023-04-18T16:59:27.903Z,100740.13
2023-04-18T17:01:57.297Z,100737.66
2023-04-18T17:04:26.884Z,100749.25
2023-04-18T17:06:54.513Z,100737.22
2023-04-18T17:09:21.535Z,100740.22
2023-04-18T17:11:48.527Z,100749.72
2023-04-18T17:14:16.524Z,100750.69
2023-04-18T17:16:44.015Z,100741.84
2023-04-18T17:19:11.407Z,100747.09
2023-04-18T17:21:38.465Z,100750.16
2023-04-18T17:24:06.978Z,100752.22
2023-04-18T17:26:36.019Z,100765.88
2023-04-18T17:29:04.321Z,100766.19
2023-04-18T17:31:32.562Z,100758.13
2023-04-18T17:34:00.266Z,100764.66
2023-04-18T17:36:27.303Z,100755.72
2023-04-18T17:38:54.345Z,100763.47
2023-04-18T17:41:22.571Z,100759.41
2023-04-18T17:43:51.124Z,100759.41
2023-04-18T17:46:18.339Z,100762.03
2023-04-18T17:48:45.355Z,100772.03
2023-04-18T17:51:12.397Z,100780.72
2023-04-18T17:53:39.339Z,100780.19
2023-04-18T17:56:06.430Z,100776.75
2023-04-18T17:58:33.408Z,100776.56
2023-04-18T18:01:00.531Z,100772.56
2023-04-18T18:03:27.727Z,100775.19
2023-04-18T18:05:57.453Z,100776.69
2023-04-18T18:08:24.964Z,100771.44
2023-04-18T18:10:51.878Z,100761.63
2023-04-18T18:13:18.832Z,100763.91
2023-04-18T18:15:45.783Z,100765.47
2023-04-18T18:18:12.735Z,100766.41
2023-04-18T18:20:43.238Z,100773.56
2023-04-18T18:23:10.236Z,100779.28
2023-04-18T18:25:37.733Z,100781.69
2023-04-18T18:28:04.823Z,100781.97
2023-04-18T18:30:31.804Z,100790.19
2023-04-18T18:32:58.805Z,100799.16
2023-04-18T18:35:25.758Z,100798.13
2023-04-18T18:37:52.841Z,100803.56
2023-04-18T18:40:19.943Z,100812.53
2023-04-18T18:42:49.382Z,100820.78
2023-04-18T18:45:16.315Z,100825.50
2023-04-18T18:47:43.646Z,100812.28
2023-04-18T18:50:10.911Z,100823.66
2023-04-18T18:52:40.541Z,100827.09
2023-04-18T18:55:08.625Z,100831.78
2023-04-18T18:57:35.575Z,100839.31
2023-04-18T19:00:02.493Z,100837.94
2023-04-18T19:02:29.565Z,100831.66
2023-04-18T19:04:56.749Z,100847.88
2023-04-18T19:07:23.816Z,100847.63
2023-04-18T19:09:50.893Z,100850.38
2023-04-18T19:12:17.909Z,100848.53
2023-04-18T19:14:46.770Z,100850.38
2023-04-18T19:17:13.675Z,100855.56
2023-04-18T19:19:42.009Z,100856.94
2023-04-18T19:22:09.195Z,100867.84
2023-04-18T19:24:36.111Z,100870.44
2023-04-18T19:27:03.354Z,100873.75
2023-04-18T19:29:32.613Z,100889.09
2023-04-18T19:31:59.970Z,100885.97
2023-04-18T19:34:28.206Z,100889.41
2023-04-18T19:36:55.189Z,100882.94
2023-04-18T19:39:22.099Z,100892.31
2023-04-18T19:41:49.004Z,100882.69
2023-04-18T19:44:16.397Z,100893.81
2023-04-18T19:46:43.277Z,100898.13
2023-04-18T19:49:10.271Z,100897.69
2023-04-18T19:51:38.845Z,100899.19
2023-04-18T19:54:06.380Z,100902.53
2023-04-18T19:56:33.339Z,100910.34
2023-04-18T19:59:00.770Z,100909.25
2023-04-18T20:01:27.727Z,100912.13
2023-04-18T20:03:57.394Z,100918.84
2023-04-18T20:06:26.587Z,100914.03
2023-04-18T20:08:53.713Z,100918.22
2023-04-18T20:11:22.174Z,100913.66
2023-04-18T20:13:49.413Z,100916.00
2023-04-18T20:16:17.289Z,100927.53
2023-04-18T20:18:47.215Z,100932.75
2023-04-18T20:21:14.176Z,100927.00
2023-04-18T20:23:42.542Z,100938.38
2023-04-18T20:26:09.509Z,100928.63
2023-04-18T20:28:37.881Z,100948.00
2023-04-18T20:31:04.975Z,100936.47
2023-04-18T20:33:32.847Z,100943.47
2023-04-18T20:36:00.375Z,100934.09
2023-04-18T20:38:29.580Z,100941.09
2023-04-18T20:40:58.790Z,100938.50
2023-04-18T20:43:26.765Z,100944.28
2023-04-18T20:45:54.465Z,100940.97
2023-04-18T20:48:21.553Z,100945.63
2023-04-18T20:50:51.752Z,100958.22
2023-04-18T20:53:22.417Z,100942.19
2023-04-18T20:55:49.494Z,100954.91
2023-04-18T20:58:16.845Z,100959.59
2023-04-18T21:00:44.890Z,100950.66
2023-04-18T21:03:16.277Z,100952.56
2023-04-18T21:05:44.740Z,100947.50
2023-04-18T21:08:11.685Z,100948.84
2023-04-18T21:10:39.007Z,100953.25
2023-04-18T21:13:05.963Z,100950.25
2023-04-18T21:15:33.065Z,100956.78
2023-04-18T21:18:00.104Z,100958.72
2023-04-18T21:20:27.102Z,100965.44
2023-04-18T21:22:54.013Z,100960.78
2023-04-18T21:25:21.353Z,100962.19
2023-04-18T21:27:50.947Z,100966.13
2023-04-18T21:30:18.294Z,100960.91
2023-04-18T21:32:47.087Z,100960.47
2023-04-18T21:35:14.503Z,100970.34
2023-04-18T21:37:42.181Z,100968.97
2023-04-18T21:40:09.805Z,100971.06
2023-04-18T21:42:37.184Z,100977.59
2023-04-18T21:45:06.117Z,100982.72
2023-04-18T21:47:33.264Z,100978.50
2023-04-18T21:50:00.305Z,100972.31
2023-04-18T21:52:27.245Z,100967.78
2023-04-18T21:54:54.118Z,100971.28
2023-04-18T21:57:21.102Z,100985.31
2023-04-18T21:59:47.983Z,100972.66
2023-04-18T22:02:15.467Z,100984.50
2023-04-18T22:04:45.013Z,100976.03
2023-04-18T22:07:12.458Z,100969.88
2023-04-18T22:09:39.808Z,100969.47
2023-04-18T22:12:06.934Z,100978.44
2023-04-18T22:14:34.468Z,100973.84
2023-04-18T22:17:04.720Z,100980.03
2023-04-18T22:19:31.884Z,100964.41
2023-04-18T22:21:58.929Z,100982.97
2023-04-18T22:24:26.060Z,100975.56
2023-04-18T22:26:53.744Z,100974.75
2023-04-18T22:29:20.855Z,100969.75
2023-04-18T22:31:47.883Z,100969.09
2023-04-18T22:34:14.968Z,100977.03
2023-04-18T22:36:42.775Z,100976.19
2023-04-18T22:39:09.736Z,100975.91
2023-04-18T22:41:36.625Z,100978.19
2023-04-18T22:44:04.827Z,100980.44
2023-04-18T22:46:32.800Z,100978.13
2023-04-18T22:48:59.837Z,100976.31
2023-04-18T22:51:28.598Z,100977.56
2023-04-18T22:53:56.490Z,100977.44
2023-04-18T22:56:23.526Z,100982.91
2023-04-18T22:58:50.910Z,100975.69
2023-04-18T23:01:18.061Z,100980.66
2023-04-18T23:03:45.312Z,100979.53
2023-04-18T23:06:12.593Z,100982.34
2023-04-18T23:08:39.578Z,100982.56
2023-04-18T23:11:06.480Z,100979.84
2023-04-18T23:13:33.394Z,100987.28
2023-04-18T23:16:00.345Z,100984.94
2023-04-18T23:18:30.153Z,100977.38
2023-04-18T23:20:57.086Z,100979.53
2023-04-18T23:23:24.048Z,100974.59
2023-04-18T23:25:51.088Z,100977.06
2023-04-18T23:28:18.428Z,100977.25
2023-04-18T23:30:45.459Z,100983.28
2023-04-18T23:33:12.336Z,100987.53
2023-04-18T23:35:39.286Z,100981.69
2023-04-18T23:38:06.214Z,100986.78
2023-04-18T23:40:33.208Z,100979.66
2023-04-18T23:43:00.819Z,100980.19
2023-04-18T23:45:28.779Z,100978.78
2023-04-18T23:47:55.769Z,100982.44
2023-04-18T23:50:22.671Z,100976.75
2023-04-18T23:52:49.622Z,100982.91
2023-04-18T23:55:17.188Z,100980.56
2023-04-18T23:57:44.368Z,100982.25
